createdAt,value
2022-12-09T00:01:06.122Z,95671.34
2022-12-09T00:03:34.568Z,95672.44
2022-12-09T00:06:08.529Z,95663.16
2022-12-09T00:08:36.822Z,95656.25
2022-12-09T00:11:05.077Z,95650.97
2022-12-09T00:13:32.709Z,95651.78
2022-12-09T00:16:00.348Z,95653.81
2022-12-09T00:18:28.122Z,95655.72
2022-12-09T00:20:55.644Z,95649.91
2022-12-09T00:23:24.734Z,95648.31
2022-12-09T00:25:52.476Z,95644.78
2022-12-09T00:28:20.364Z,95642.88
2022-12-09T00:30:48.004Z,95643.56
2022-12-09T00:33:15.993Z,95643.41
2022-12-09T00:35:43.650Z,95631.50
2022-12-09T00:38:11.186Z,95624.78
2022-12-09T00:40:40.057Z,95622.22
2022-12-09T00:43:07.773Z,95628.81
2022-12-09T00:45:35.360Z,95615.97
2022-12-09T00:48:03.064Z,95615.84
2022-12-09T00:50:30.605Z,95609.59
2022-12-09T00:52:58.252Z,95617.00
2022-12-09T00:55:26.053Z,95620.09
2022-12-09T00:57:55.060Z,95623.34
2022-12-09T01:00:22.627Z,95618.88
2022-12-09T01:02:50.354Z,95611.97
2022-12-09T01:05:18.574Z,95606.97
2022-12-09T01:07:46.281Z,95609.69
2022-12-09T01:10:14.048Z,95613.88
2022-12-09T01:12:41.590Z,95612.25
2022-12-09T01:15:11.707Z,95610.81
2022-12-09T01:17:40.148Z,95612.53
2022-12-09T01:20:10.316Z,95617.97
2022-12-09T01:22:38.579Z,95623.78
2022-12-09T01:25:07.150Z,95617.97
2022-12-09T01:27:34.760Z,95606.06
2022-12-09T01:30:02.374Z,95620.53
2022-12-09T01:32:31.380Z,95611.06
2022-12-09T01:34:58.927Z,95595.66
2022-12-09T01:37:26.676Z,95600.66
2022-12-09T01:39:54.370Z,95604.16
2022-12-09T01:42:25.762Z,95606.91
2022-12-09T01:45:44.937Z,95601.59
2022-12-09T01:48:16.607Z,95598.09
2022-12-09T01:50:50.232Z,95598.09
2022-12-09T01:53:19.604Z,95597.13
2022-12-09T01:55:47.565Z,95585.25
2022-12-09T01:58:16.108Z,95581.06
2022-12-09T02:00:45.188Z,95583.13
2022-12-09T02:03:14.485Z,95592.88
2022-12-09T02:05:42.853Z,95588.03
2022-12-09T02:08:13.309Z,95582.75
2022-12-09T02:10:46.964Z,95586.16
2022-12-09T02:13:25.201Z,95578.88
2022-12-09T02:15:55.922Z,95585.91
2022-12-09T02:18:28.807Z,95581.72
2022-12-09T02:20:59.315Z,95580.63
2022-12-09T02:23:35.188Z,95574.69
2022-12-09T02:26:14.480Z,95575.00
2022-12-09T02:29:01.944Z,95568.53
2022-12-09T02:31:45.404Z,95568.97
2022-12-09T02:34:18.187Z,95557.38
2022-12-09T02:36:57.885Z,95552.50
2022-12-09T02:39:32.653Z,95561.19
2022-12-09T02:42:04.492Z,95558.47
2022-12-09T02:44:33.118Z,95561.53
2022-12-09T02:47:01.714Z,95559.63
2022-12-09T02:49:33.205Z,95552.75
2022-12-09T02:52:02.365Z,95554.38
2022-12-09T02:54:33.395Z,95550.56
2022-12-09T02:57:06.380Z,95549.78
2022-12-09T02:59:34.220Z,95542.47
2022-12-09T03:02:13.093Z,95547.09
2022-12-09T03:04:45.877Z,95543.88
2022-12-09T03:07:26.855Z,95539.41
2022-12-09T03:10:03.041Z,95542.66
2022-12-09T03:12:33.110Z,95542.13
2022-12-09T03:15:03.939Z,95544.97
2022-12-09T03:17:34.400Z,95534.19
2022-12-09T03:20:08.536Z,95528.97
2022-12-09T03:22:38.180Z,95518.66
2022-12-09T03:25:10.326Z,95518.69
2022-12-09T03:27:41.794Z,95521.38
2022-12-09T03:30:12.173Z,95524.91
2022-12-09T03:32:42.130Z,95521.97
2022-12-09T03:35:15.617Z,95520.91
2022-12-09T03:37:45.850Z,95512.31
2022-12-09T03:40:17.585Z,95511.00
2022-12-09T03:42:50.505Z,95509.25
2022-12-09T03:45:20.832Z,95507.19
2022-12-09T03:47:48.495Z,95503.94
2022-12-09T03:50:18.154Z,95504.16
2022-12-09T03:52:50.097Z,95501.16
2022-12-09T03:55:24.435Z,95504.09
2022-12-09T03:57:55.916Z,95493.00
2022-12-09T04:00:23.966Z,95494.97
2022-12-09T04:02:51.822Z,95494.31
2022-12-09T04:05:20.957Z,95491.69
2022-12-09T04:07:48.699Z,95492.75
2022-12-09T04:10:16.282Z,95494.94
2022-12-09T04:12:43.967Z,95496.28
2022-12-09T04:15:11.760Z,95494.59
2022-12-09T04:17:39.417Z,95489.16
2022-12-09T04:20:09.261Z,95497.31
2022-12-09T04:22:38.456Z,95493.84
2022-12-09T04:25:07.619Z,95485.25
2022-12-09T04:27:35.224Z,95482.47
2022-12-09T04:30:02.791Z,95490.47
2022-12-09T04:32:31.312Z,95483.44
2022-12-09T04:34:58.882Z,95478.00
2022-12-09T04:37:26.736Z,95475.31
2022-12-09T04:39:55.638Z,95470.31
2022-12-09T04:42:23.194Z,95472.22
2022-12-09T04:44:50.861Z,95451.03
2022-12-09T04:47:18.872Z,95454.56
2022-12-09T04:49:46.616Z,95455.38
2022-12-09T04:52:14.260Z,95451.69
2022-12-09T04:54:41.811Z,95453.38
2022-12-09T04:57:12.354Z,95449.38
2022-12-09T04:59:40.115Z,95451.56
2022-12-09T05:02:07.903Z,95446.44
2022-12-09T05:04:36.006Z,95433.47
2022-12-09T05:07:03.978Z,95437.38
2022-12-09T05:09:31.866Z,95436.41
2022-12-09T05:11:59.422Z,95434.81
2022-12-09T05:14:28.612Z,95419.69
2022-12-09T05:16:56.464Z,95419.44
2022-12-09T05:19:24.972Z,95417.00
2022-12-09T05:21:52.981Z,95422.13
2022-12-09T05:24:20.667Z,95423.59
2022-12-09T05:26:48.503Z,95415.59
2022-12-09T05:29:22.385Z,95411.72
2022-12-09T05:31:52.527Z,95419.25
2022-12-09T05:34:20.521Z,95412.38
2022-12-09T05:36:48.641Z,95413.03
2022-12-09T05:39:16.455Z,95411.94
2022-12-09T05:41:44.553Z,95407.31
2022-12-09T05:44:12.878Z,95406.06
2022-12-09T05:46:40.548Z,95398.53
2022-12-09T05:49:10.301Z,95393.84
2022-12-09T05:51:38.458Z,95391.56
2022-12-09T05:54:07.382Z,95389.00
2022-12-09T05:56:35.452Z,95387.25
2022-12-09T05:59:03.202Z,95398.16
2022-12-09T06:01:31.304Z,95394.81
2022-12-09T06:03:59.168Z,95386.97
2022-12-09T06:06:30.213Z,95391.00
2022-12-09T06:09:00.857Z,95377.66
2022-12-09T06:11:30.207Z,95370.16
2022-12-09T06:13:58.329Z,95363.34
2022-12-09T06:16:26.724Z,95359.53
2022-12-09T06:18:55.143Z,95368.03
2022-12-09T06:21:23.637Z,95370.09
2022-12-09T06:23:53.660Z,95368.03
2022-12-09T06:26:23.998Z,95360.06
2022-12-09T06:28:52.889Z,95366.00
2022-12-09T06:31:21.300Z,95350.59
2022-12-09T06:33:58.481Z,95356.00
2022-12-09T06:36:28.060Z,95351.31
2022-12-09T06:39:01.786Z,95350.66
2022-12-09T06:41:33.940Z,95359.03
2022-12-09T06:44:02.021Z,95349.22
2022-12-09T06:46:29.833Z,95357.22
2022-12-09T06:48:57.885Z,95353.53
2022-12-09T06:51:26.106Z,95359.31
2022-12-09T06:53:54.615Z,95354.84
2022-12-09T06:56:24.722Z,95360.34
2022-12-09T06:58:52.882Z,95362.44
2022-12-09T07:01:23.099Z,95374.81
2022-12-09T07:03:52.714Z,95368.63
2022-12-09T07:06:27.070Z,95361.59
2022-12-09T07:08:55.828Z,95351.59
2022-12-09T07:11:25.174Z,95349.47
2022-12-09T07:13:53.517Z,95353.97
2022-12-09T07:16:21.931Z,95362.44
2022-12-09T07:18:49.904Z,95364.75
2022-12-09T07:21:20.904Z,95360.91
2022-12-09T07:23:49.379Z,95360.47
2022-12-09T07:26:18.383Z,95351.81
2022-12-09T07:28:50.188Z,95354.09
2022-12-09T07:31:20.230Z,95359.72
2022-12-09T07:33:48.553Z,95355.38
2022-12-09T07:36:21.028Z,95348.78
2022-12-09T07:38:49.656Z,95356.00
2022-12-09T07:41:19.313Z,95348.31
2022-12-09T07:43:49.688Z,95353.44
2022-12-09T07:46:19.431Z,95347.78
2022-12-09T07:48:48.474Z,95348.44
2022-12-09T07:51:17.223Z,95345.56
2022-12-09T07:53:45.334Z,95353.78
2022-12-09T07:56:15.671Z,95342.91
2022-12-09T07:58:44.748Z,95340.69
2022-12-09T08:01:16.703Z,95335.28
2022-12-09T08:03:45.505Z,95338.47
2022-12-09T08:06:15.128Z,95343.44
2022-12-09T08:08:43.139Z,95332.91
2022-12-09T08:11:12.957Z,95331.78
2022-12-09T08:13:42.261Z,95334.19
2022-12-09T08:16:14.218Z,95328.91
2022-12-09T08:18:43.195Z,95327.63
2022-12-09T08:21:13.395Z,95328.63
2022-12-09T08:23:41.316Z,95333.81
2022-12-09T08:26:10.585Z,95326.28
2022-12-09T08:28:38.753Z,95330.31
2022-12-09T08:31:10.709Z,95325.19
2022-12-09T08:33:40.762Z,95323.91
2022-12-09T08:36:13.051Z,95320.88
2022-12-09T08:38:41.362Z,95322.81
2022-12-09T08:41:10.644Z,95314.66
2022-12-09T08:43:39.394Z,95313.38
2022-12-09T08:46:07.135Z,95309.03
2022-12-09T08:48:37.152Z,95313.72
2022-12-09T08:51:07.368Z,95311.63
2022-12-09T08:53:35.117Z,95310.03
2022-12-09T08:56:10.304Z,95310.53
2022-12-09T08:58:38.279Z,95308.28
2022-12-09T09:01:06.718Z,95306.88
2022-12-09T09:03:35.402Z,95311.88
2022-12-09T09:06:09.672Z,95309.75
2022-12-09T09:08:40.329Z,95310.91
2022-12-09T09:11:12.275Z,95310.44
2022-12-09T09:13:41.499Z,95305.94
2022-12-09T09:16:11.395Z,95294.38
2022-12-09T09:18:39.622Z,95305.28
2022-12-09T09:21:09.081Z,95298.38
2022-12-09T09:23:37.520Z,95298.88
2022-12-09T09:26:10.285Z,95294.19
2022-12-09T09:28:37.949Z,95291.31
2022-12-09T09:31:07.902Z,95300.63
2022-12-09T09:33:36.362Z,95302.25
2022-12-09T09:36:10.153Z,95305.78
2022-12-09T09:38:38.745Z,95297.41
2022-12-09T09:41:21.691Z,95300.97
2022-12-09T09:43:49.900Z,95306.41
2022-12-09T09:46:30.183Z,95298.22
2022-12-09T09:48:59.914Z,95294.84
2022-12-09T09:51:28.613Z,95294.03
2022-12-09T09:53:56.449Z,95285.38
2022-12-09T09:56:35.535Z,95288.75
2022-12-09T09:59:19.406Z,95290.19
2022-12-09T10:01:54.495Z,95291.81
2022-12-09T10:04:29.725Z,95287.47
2022-12-09T10:07:08.755Z,95287.91
2022-12-09T10:09:42.821Z,95294.06
2022-12-09T10:12:21.314Z,95287.78
2022-12-09T10:14:57.901Z,95291.78
2022-12-09T10:17:29.634Z,95290.66
2022-12-09T10:20:03.640Z,95285.22
2022-12-09T10:22:38.472Z,95273.94
2022-12-09T10:25:17.837Z,95267.50
2022-12-09T10:27:53.298Z,95264.59
2022-12-09T10:30:21.755Z,95261.72
2022-12-09T10:32:50.395Z,95253.81
2022-12-09T10:35:20.833Z,95255.28
2022-12-09T10:37:49.876Z,95249.78
2022-12-09T10:40:23.979Z,95245.44
2022-12-09T10:43:15.462Z,95242.56
2022-12-09T10:46:15.712Z,95244.50
2022-12-09T10:48:34.618Z,95237.56
2022-12-09T10:51:07.043Z,95241.44
2022-12-09T10:53:36.134Z,95240.13
2022-12-09T10:56:05.115Z,95232.72
2022-12-09T10:58:34.093Z,95228.84
2022-12-09T11:01:05.283Z,95220.19
2022-12-09T11:03:36.278Z,95218.56
2022-12-09T11:06:16.477Z,95216.63
2022-12-09T11:08:52.477Z,95224.19
2022-12-09T11:11:20.753Z,95227.06
2022-12-09T11:13:49.999Z,95223.69
2022-12-09T11:16:18.105Z,95227.25
2022-12-09T11:18:48.147Z,95234.97
2022-12-09T11:21:33.456Z,95233.34
2022-12-09T11:24:03.412Z,95226.44
2022-12-09T11:26:38.460Z,95212.63
2022-12-09T11:29:15.694Z,95207.31
2022-12-09T11:31:44.632Z,95208.59
2022-12-09T11:34:19.821Z,95202.28
2022-12-09T11:36:50.766Z,95205.31
2022-12-09T11:39:26.235Z,95202.94
2022-12-09T11:42:17.654Z,95221.75
2022-12-09T11:44:56.477Z,95223.19
2022-12-09T11:47:36.482Z,95207.59
2022-12-09T11:50:18.824Z,95208.22
2022-12-09T11:52:47.082Z,95202.56
2022-12-09T11:55:20.369Z,95200.44
2022-12-09T11:57:52.275Z,95197.88
2022-12-09T12:00:25.627Z,95189.97
2022-12-09T12:03:00.449Z,95194.97
2022-12-09T12:05:33.988Z,95191.75
2022-12-09T12:08:14.993Z,95195.94
2022-12-09T12:10:45.732Z,95184.69
2022-12-09T12:13:21.262Z,95175.00
2022-12-09T12:15:57.133Z,95178.22
2022-12-09T12:18:27.089Z,95178.84
2022-12-09T12:21:19.579Z,95183.81
2022-12-09T12:24:12.777Z,95176.91
2022-12-09T12:26:42.216Z,95165.28
2022-12-09T12:29:28.951Z,95158.53
2022-12-09T12:32:28.764Z,95162.09
2022-12-09T12:35:13.455Z,95173.34
2022-12-09T12:37:54.696Z,95172.72
2022-12-09T12:40:33.304Z,95169.81
2022-12-09T12:43:29.408Z,95166.28
2022-12-09T12:46:18.980Z,95171.06
2022-12-09T12:49:00.036Z,95165.59
2022-12-09T12:51:37.528Z,95158.50
2022-12-09T12:54:16.345Z,95163.47
2022-12-09T12:56:52.363Z,95165.09
2022-12-09T12:59:28.088Z,95158.50
2022-12-09T13:02:01.289Z,95162.03
2022-12-09T13:04:40.231Z,95162.03
2022-12-09T13:07:13.062Z,95168.50
2022-12-09T13:09:43.552Z,95163.97
2022-12-09T13:12:16.616Z,95169.47
2022-12-09T13:14:53.428Z,95168.22
2022-12-09T13:17:24.129Z,95166.78
2022-12-09T13:19:55.529Z,95167.72
2022-12-09T13:22:27.719Z,95160.19
2022-12-09T13:25:02.561Z,95171.28
2022-12-09T13:27:38.395Z,95170.16
2022-12-09T13:30:12.175Z,95173.72
2022-12-09T13:32:59.400Z,95173.72
2022-12-09T13:35:36.544Z,95171.13
2022-12-09T13:38:04.529Z,95177.88
2022-12-09T13:40:36.604Z,95179.66
2022-12-09T13:43:12.927Z,95178.84
2022-12-09T13:45:50.120Z,95185.44
2022-12-09T13:48:43.410Z,95188.47
2022-12-09T13:51:12.409Z,95191.34
2022-12-09T13:53:46.369Z,95185.41
2022-12-09T13:56:28.833Z,95184.59
2022-12-09T13:59:17.732Z,95179.63
2022-12-09T14:01:49.891Z,95183.94
2022-12-09T14:04:22.181Z,95186.53
2022-12-09T14:06:57.403Z,95193.13
2022-12-09T14:09:36.659Z,95193.28
2022-12-09T14:12:06.379Z,95193.63
2022-12-09T14:14:58.739Z,95194.25
2022-12-09T14:18:01.309Z,95176.06
2022-12-09T14:20:37.846Z,95188.31
2022-12-09T14:23:19.223Z,95181.72
2022-12-09T14:26:05.819Z,95189.44
2022-12-09T14:28:56.219Z,95187.84
2022-12-09T14:31:57.842Z,95186.06
2022-12-09T14:34:33.255Z,95184.94
2022-12-09T14:37:21.408Z,95187.34
2022-12-09T14:39:56.993Z,95190.88
2022-12-09T14:42:34.272Z,95195.41
2022-12-09T14:45:15.484Z,95201.53
2022-12-09T14:47:46.355Z,95198.16
2022-12-09T14:50:17.228Z,95205.88
2022-12-09T14:52:53.876Z,95214.22
2022-12-09T14:55:26.265Z,95207.31
2022-12-09T14:57:55.672Z,95220.19
2022-12-09T15:00:30.307Z,95216.63
2022-12-09T15:03:30.624Z,95209.69
2022-12-09T15:05:55.753Z,95208.41
2022-12-09T15:08:34.376Z,95214.03
2022-12-09T15:11:09.361Z,95213.56
2022-12-09T15:13:37.710Z,95217.44
2022-12-09T15:16:09.186Z,95218.56
2022-12-09T15:18:39.811Z,95213.41
2022-12-09T15:21:08.117Z,95218.56
2022-12-09T15:23:38.913Z,95219.22
2022-12-09T15:26:10.688Z,95218.56
2022-12-09T15:28:38.616Z,95224.72
2022-12-09T15:31:08.066Z,95219.38
2022-12-09T15:33:41.525Z,95213.25
2022-12-09T15:36:12.563Z,95221.94
2022-12-09T15:38:45.943Z,95223.72
2022-12-09T15:41:34.946Z,95222.13
2022-12-09T15:44:07.459Z,95226.13
2022-12-09T15:46:37.633Z,95232.09
2022-12-09T15:49:08.382Z,95234.22
2022-12-09T15:51:38.106Z,95236.16
2022-12-09T15:54:12.035Z,95230.03
2022-12-09T15:56:46.855Z,95237.75
2022-12-09T15:59:20.352Z,95237.09
2022-12-09T16:01:50.398Z,95235.66
2022-12-09T16:04:20.898Z,95249.34
2022-12-09T16:06:50.118Z,95246.13
2022-12-09T16:09:20.896Z,95240.34
2022-12-09T16:11:54.481Z,95241.31
2022-12-09T16:14:24.439Z,95239.38
2022-12-09T16:16:56.286Z,95244.19
2022-12-09T16:19:33.602Z,95254.50
2022-12-09T16:22:04.469Z,95249.50
2022-12-09T16:25:05.660Z,95254.84
2022-12-09T16:27:25.480Z,95254.84
2022-12-09T16:29:55.207Z,95255.63
2022-12-09T16:32:28.183Z,95263.50
2022-12-09T16:34:57.947Z,95268.66
2022-12-09T16:37:35.807Z,95269.66
2022-12-09T16:40:35.193Z,95271.09
2022-12-09T16:43:23.467Z,95269.31
2022-12-09T16:45:52.457Z,95265.59
2022-12-09T16:48:21.837Z,95258.69
2022-12-09T16:50:51.641Z,95268.00
2022-12-09T16:53:21.409Z,95270.75
2022-12-09T16:55:53.245Z,95266.41
2022-12-09T16:58:22.863Z,95270.09
2022-12-09T17:00:51.043Z,95273.81
2022-12-09T17:03:32.651Z,95271.88
2022-12-09T17:06:00.373Z,95273.50
2022-12-09T17:08:27.963Z,95274.66
2022-12-09T17:10:55.550Z,95278.81
2022-12-09T17:13:24.446Z,95283.66
2022-12-09T17:15:52.935Z,95285.59
2022-12-09T17:18:20.530Z,95275.31
2022-12-09T17:20:48.052Z,95281.25
2022-12-09T17:23:15.555Z,95284.63
2022-12-09T17:25:43.069Z,95285.41
2022-12-09T17:28:11.628Z,95282.03
2022-12-09T17:30:40.464Z,95271.91
2022-12-09T17:33:07.970Z,95276.44
2022-12-09T17:35:38.774Z,95273.22
2022-12-09T17:38:06.312Z,95281.09
2022-12-09T17:40:35.521Z,95285.78
2022-12-09T17:43:03.409Z,95293.69
2022-12-09T17:45:30.928Z,95278.53
2022-12-09T17:48:00.106Z,95275.50
2022-12-09T17:50:27.629Z,95277.25
2022-12-09T17:52:55.155Z,95290.31
2022-12-09T17:55:23.116Z,95290.63
2022-12-09T17:57:54.124Z,95285.47
2022-12-09T18:00:22.166Z,95289.03
2022-12-09T18:02:49.730Z,95287.41
2022-12-09T18:05:18.744Z,95288.06
2022-12-09T18:07:46.351Z,95287.75
2022-12-09T18:10:13.923Z,95298.03
2022-12-09T18:12:41.507Z,95295.47
2022-12-09T18:15:09.578Z,95299.47
2022-12-09T18:17:37.061Z,95306.84
2022-12-09T18:20:05.689Z,95305.06
2022-12-09T18:22:34.841Z,95307.34
2022-12-09T18:25:02.472Z,95298.47
2022-12-09T18:27:30.785Z,95314.41
2022-12-09T18:29:58.305Z,95315.66
2022-12-09T18:32:25.900Z,95312.16
2022-12-09T18:34:53.472Z,95316.31
2022-12-09T18:37:21.304Z,95316.94
2022-12-09T18:39:50.128Z,95322.94
2022-12-09T18:42:17.616Z,95321.00
2022-12-09T18:44:45.333Z,95332.56
2022-12-09T18:47:12.855Z,95332.25
2022-12-09T18:49:40.391Z,95330.47
2022-12-09T18:52:07.951Z,95332.25
2022-12-09T18:54:36.522Z,95340.75
2022-12-09T18:57:05.545Z,95337.88
2022-12-09T18:59:33.411Z,95336.59
2022-12-09T19:02:00.950Z,95345.78
2022-12-09T19:04:29.972Z,95337.88
2022-12-09T19:06:59.911Z,95335.31
2022-12-09T19:09:31.721Z,95339.81
2022-12-09T19:12:11.308Z,95342.41
2022-12-09T19:14:48.220Z,95351.72
2022-12-09T19:17:15.763Z,95350.75
2022-12-09T19:19:45.176Z,95347.53
2022-12-09T19:22:12.719Z,95349.31
2022-12-09T19:24:43.181Z,95344.78
2022-12-09T19:27:11.252Z,95336.91
2022-12-09T19:29:39.422Z,95340.47
2022-12-09T19:32:29.397Z,95342.41
2022-12-09T19:34:55.974Z,95339.97
2022-12-09T19:37:23.579Z,95337.91
2022-12-09T19:39:51.080Z,95337.09
2022-12-09T19:42:19.187Z,95343.84
2022-12-09T19:45:06.491Z,95339.19
2022-12-09T19:47:36.865Z,95333.03
2022-12-09T19:50:05.348Z,95334.03
2022-12-09T19:52:33.101Z,95339.19
2022-12-09T19:55:00.652Z,95335.63
2022-12-09T19:57:28.137Z,95337.41
2022-12-09T19:59:55.671Z,95344.00
2022-12-09T20:02:23.408Z,95349.47
2022-12-09T20:04:52.558Z,95354.63
2022-12-09T20:07:20.536Z,95365.72
2022-12-09T20:09:48.138Z,95368.31
2022-12-09T20:12:15.759Z,95359.78
2022-12-09T20:14:43.893Z,95363.63
2022-12-09T20:17:11.618Z,95367.81
2022-12-09T20:19:39.153Z,95363.28
2022-12-09T20:22:08.001Z,95367.94
2022-12-09T20:24:35.750Z,95366.81
2022-12-09T20:27:03.291Z,95379.69
2022-12-09T20:29:36.914Z,95378.75
2022-12-09T20:32:05.370Z,95373.59
2022-12-09T20:34:32.940Z,95379.53
2022-12-09T20:37:00.741Z,95378.59
2022-12-09T20:39:29.616Z,95376.97
2022-12-09T20:41:57.170Z,95379.41
2022-12-09T20:44:25.152Z,95382.94
2022-12-09T20:46:54.129Z,95392.13
2022-12-09T20:49:26.607Z,95385.19
2022-12-09T20:51:55.408Z,95380.69
2022-12-09T20:54:23.411Z,95382.13
2022-12-09T20:56:52.988Z,95381.66
2022-12-09T20:59:20.556Z,95376.50
2022-12-09T21:01:48.090Z,95369.44
2022-12-09T21:04:16.349Z,95378.91
2022-12-09T21:06:43.931Z,95377.16
2022-12-09T21:09:17.345Z,95380.84
2022-12-09T21:11:45.550Z,95378.44
2022-12-09T21:14:14.531Z,95378.75
2022-12-09T21:16:43.798Z,95377.47
2022-12-09T21:19:14.222Z,95374.25
2022-12-09T21:21:43.348Z,95373.44
2022-12-09T21:24:12.076Z,95371.66
2022-12-09T21:26:40.018Z,95362.81
2022-12-09T21:29:08.633Z,95355.88
2022-12-09T21:31:40.799Z,95357.84
2022-12-09T21:34:10.023Z,95365.56
2022-12-09T21:36:41.132Z,95357.00
2022-12-09T21:39:09.600Z,95364.75
2022-12-09T21:41:37.825Z,95373.44
2022-12-09T21:44:07.829Z,95386.81
2022-12-09T21:46:37.967Z,95389.88
2022-12-09T21:49:07.109Z,95396.78
2022-12-09T21:51:35.456Z,95402.91
2022-12-09T21:54:03.340Z,95396.31
2022-12-09T21:56:32.728Z,95398.91
2022-12-09T21:59:01.182Z,95394.69
2022-12-09T22:01:30.953Z,95400.03
2022-12-09T22:04:01.336Z,95401.47
2022-12-09T22:06:29.361Z,95402.13
2022-12-09T22:08:58.472Z,95402.13
2022-12-09T22:11:28.081Z,95400.50
2022-12-09T22:13:57.494Z,95403.22
2022-12-09T22:16:26.962Z,95406.63
2022-12-09T22:18:56.555Z,95403.22
2022-12-09T22:21:29.291Z,95404.34
2022-12-09T22:23:59.940Z,95407.56
2022-12-09T22:26:27.936Z,95399.84
2022-12-09T22:28:56.818Z,95404.84
2022-12-09T22:31:27.116Z,95397.28
2022-12-09T22:33:59.263Z,95395.19
2022-12-09T22:36:28.809Z,95401.47
2022-12-09T22:38:56.637Z,95403.25
2022-12-09T22:41:27.097Z,95405.81
2022-12-09T22:43:55.385Z,95405.81
2022-12-09T22:46:24.699Z,95412.56
2022-12-09T22:48:52.966Z,95413.22
2022-12-09T22:51:22.709Z,95414.19
2022-12-09T22:53:53.878Z,95414.50
2022-12-09T22:56:22.044Z,95412.09
2022-12-09T22:58:50.168Z,95411.28
2022-12-09T23:01:19.842Z,95408.56
2022-12-09T23:03:47.875Z,95413.53
2022-12-09T23:06:15.965Z,95404.53
2022-12-09T23:08:44.684Z,95409.97
2022-12-09T23:11:15.875Z,95412.88
2022-12-09T23:13:44.108Z,95420.63
2022-12-09T23:16:14.706Z,95426.41
2022-12-09T23:18:42.660Z,95428.97
2022-12-09T23:21:11.942Z,95426.25
2022-12-09T23:23:39.890Z,95421.56
2022-12-09T23:26:11.631Z,95427.56
2022-12-09T23:28:41.867Z,95424.31
2022-12-09T23:31:11.528Z,95423.84
2022-12-09T23:33:41.020Z,95426.56
2022-12-09T23:36:11.344Z,95428.97
2022-12-09T23:38:39.200Z,95435.72
2022-12-09T23:41:07.240Z,95440.06
2022-12-09T23:43:36.220Z,95444.28
2022-12-09T23:46:14.447Z,95435.44
2022-12-09T23:48:43.671Z,95425.78
2022-12-09T23:51:12.466Z,95426.72
2022-12-09T23:53:40.785Z,95432.19
2022-12-09T23:56:11.106Z,95438.31
2022-12-09T23:58:38.815Z,95433.81
